Delta Virtual Airport Information Service

Brisbane Airport

ICAO: YBBN Country: Australia
Latitude: -27.3841 Longitude: 153.117
Latest Arrival : QFA975 (YBTL-YBBN) Latest Departure : QFA563 (YBBN-YSSY)


WX CaptureLIVE
Data provided by noaa.gov | Fetched at 06:29:29

METAR : YBBN 271030Z 05008KT 9999 FEW015 SCT145 BKN230 26/23 Q1013 RF00/0/000/0

TAF : YBBN 271030Z 05008KT 9999 FEW015 SCT145 BKN230 26/23 Q1013 RF00/0/000/0


Runway Data for YBBN
Data provided by openaviationdata.com

Runway ID Mag Var Hdg Length Elevation Surface ILS Freq ILS Id ILS Slope
1 11 15° 11709 ft 13 ft Asphalt 109.5 IBA 3
14 11 134° 5785 ft 13 ft Asphalt -- -- --
19 11 195° 11709 ft 13 ft Asphalt 110.1 IBS 3
32 11 314° 5785 ft 13 ft Asphalt -- -- --

Brisbane Airport, Australia
Use only for reference purposes



Not for navigational purposes.